createdAt,value
2023-01-18T00:01:19.753Z,2.17
2023-01-18T00:03:47.119Z,2.43
2023-01-18T00:06:14.226Z,2.20
2023-01-18T00:08:42.653Z,1.73
2023-01-18T00:11:12.133Z,1.33
2023-01-18T00:13:39.960Z,2.50
2023-01-18T00:16:11.237Z,2.23
2023-01-18T00:18:38.493Z,3.10
2023-01-18T00:21:08.432Z,4.13
2023-01-18T00:23:36.150Z,3.00
2023-01-18T00:26:06.220Z,3.73
2023-01-18T00:28:33.536Z,5.20
2023-01-18T00:31:00.826Z,6.27
2023-01-18T00:33:28.049Z,8.57
2023-01-18T00:35:59.818Z,11.70
2023-01-18T00:38:27.625Z,14.30
2023-01-18T00:40:54.892Z,13.60
2023-01-18T00:43:40.384Z,14.53
2023-01-18T00:46:13.875Z,14.20
2023-01-18T00:48:41.986Z,14.20
2023-01-18T00:51:12.648Z,13.67
2023-01-18T00:53:40.442Z,13.03
2023-01-18T00:56:13.360Z,13.70
2023-01-18T00:58:40.569Z,14.10
2023-01-18T01:01:08.778Z,13.10
2023-01-18T01:03:55.329Z,11.53
2023-01-18T01:06:45.852Z,10.87
2023-01-18T01:09:23.959Z,12.57
2023-01-18T01:12:10.097Z,9.67
2023-01-18T01:14:59.078Z,12.27
2023-01-18T01:17:46.862Z,11.33
2023-01-18T01:20:32.869Z,11.20
2023-01-18T01:23:28.376Z,9.17
2023-01-18T01:26:13.943Z,10.97
2023-01-18T01:28:46.004Z,11.10
2023-01-18T01:31:16.226Z,11.97
2023-01-18T01:33:44.973Z,10.30
2023-01-18T01:36:17.108Z,10.83
2023-01-18T01:38:44.176Z,10.87
2023-01-18T01:41:33.030Z,10.70
2023-01-18T01:44:04.833Z,9.93
2023-01-18T01:46:50.448Z,11.83
2023-01-18T01:49:36.444Z,9.77
2023-01-18T01:52:09.717Z,9.83
2023-01-18T01:54:56.030Z,11.30
2023-01-18T01:57:31.674Z,9.83
2023-01-18T02:00:12.180Z,9.73
2023-01-18T02:02:40.959Z,8.57
2023-01-18T02:05:10.402Z,10.33
2023-01-18T02:07:37.807Z,9.33
2023-01-18T02:10:05.929Z,8.90
2023-01-18T02:12:34.983Z,10.53
2023-01-18T02:15:02.444Z,8.07
2023-01-18T02:17:48.486Z,7.33
2023-01-18T02:20:27.561Z,7.93
2023-01-18T02:23:04.004Z,8.13
2023-01-18T02:26:08.060Z,7.30
2023-01-18T02:28:40.426Z,5.73
2023-01-18T02:31:23.067Z,6.27
2023-01-18T02:34:30.430Z,6.33
2023-01-18T02:37:04.769Z,7.47
2023-01-18T02:39:50.331Z,6.37
2023-01-18T02:42:40.984Z,7.33
2023-01-18T02:45:39.409Z,6.87
2023-01-18T02:48:07.800Z,7.63
2023-01-18T02:50:34.845Z,8.13
2023-01-18T02:53:01.999Z,7.53
2023-01-18T02:55:41.324Z,6.70
2023-01-18T02:58:24.605Z,7.53
2023-01-18T03:00:59.976Z,6.37
2023-01-18T03:03:28.127Z,8.00
2023-01-18T03:06:02.330Z,7.93
2023-01-18T03:09:05.135Z,8.03
2023-01-18T03:11:56.066Z,9.43
2023-01-18T03:14:32.340Z,9.73
2023-01-18T03:17:07.802Z,8.43
2023-01-18T03:20:07.353Z,9.73
2023-01-18T03:23:08.072Z,8.17
2023-01-18T03:25:43.022Z,6.23
2023-01-18T03:28:34.768Z,7.47
2023-01-18T03:31:25.033Z,7.27
2023-01-18T03:34:03.375Z,6.97
2023-01-18T03:36:39.882Z,7.60
2023-01-18T03:39:11.393Z,7.20
2023-01-18T03:41:43.144Z,7.27
2023-01-18T03:44:16.483Z,8.37
2023-01-18T03:46:43.961Z,5.63
2023-01-18T03:49:12.558Z,5.80
2023-01-18T03:51:58.282Z,5.20
2023-01-18T03:54:31.083Z,5.97
2023-01-18T03:57:10.259Z,7.17
2023-01-18T03:59:39.407Z,5.97
2023-01-18T04:02:08.168Z,6.50
2023-01-18T04:04:35.686Z,7.37
2023-01-18T04:07:02.955Z,7.00
2023-01-18T04:09:30.055Z,7.57
2023-01-18T04:11:57.115Z,8.13
2023-01-18T04:14:24.385Z,8.20
2023-01-18T04:16:51.282Z,6.57
2023-01-18T04:19:18.689Z,7.33
2023-01-18T04:21:45.805Z,7.27
2023-01-18T04:24:13.148Z,7.53
2023-01-18T04:26:40.227Z,6.87
2023-01-18T04:29:07.237Z,7.67
2023-01-18T04:31:34.349Z,7.30
2023-01-18T04:34:03.403Z,7.80
2023-01-18T04:36:30.316Z,7.87
2023-01-18T04:38:57.564Z,8.93
2023-01-18T04:41:24.608Z,9.00
2023-01-18T04:43:51.564Z,7.40
2023-01-18T04:46:18.558Z,7.63
2023-01-18T04:48:50.246Z,7.40
2023-01-18T04:51:18.008Z,8.40
2023-01-18T04:53:45.345Z,8.00
2023-01-18T04:56:12.553Z,7.90
2023-01-18T04:58:39.577Z,9.17
2023-01-18T05:01:09.203Z,9.33
2023-01-18T05:03:38.430Z,8.83
2023-01-18T05:06:14.180Z,9.23
2023-01-18T05:08:41.986Z,8.43
2023-01-18T05:11:14.518Z,6.90
2023-01-18T05:13:42.657Z,9.13
2023-01-18T05:16:17.790Z,8.23
2023-01-18T05:18:45.547Z,8.47
2023-01-18T05:21:13.314Z,8.10
2023-01-18T05:23:40.616Z,9.30
2023-01-18T05:26:14.595Z,8.73
2023-01-18T05:28:42.860Z,8.87
2023-01-18T05:31:09.968Z,8.57
2023-01-18T05:33:37.399Z,9.23
2023-01-18T05:36:04.879Z,7.43
2023-01-18T05:38:31.961Z,10.33
2023-01-18T05:40:59.405Z,9.33
2023-01-18T05:43:28.063Z,8.77
2023-01-18T05:45:55.285Z,9.03
2023-01-18T05:48:22.361Z,10.07
2023-01-18T05:50:50.048Z,10.20
2023-01-18T05:53:20.132Z,9.17
2023-01-18T05:56:02.185Z,8.50
2023-01-18T05:58:29.688Z,8.20
2023-01-18T06:00:57.050Z,7.67
2023-01-18T06:03:25.376Z,8.13
2023-01-18T06:05:53.318Z,8.30
2023-01-18T06:08:20.921Z,7.77
2023-01-18T06:10:59.248Z,8.80
2023-01-18T06:13:29.658Z,7.27
2023-01-18T06:15:58.325Z,8.27
2023-01-18T06:18:27.190Z,6.90
2023-01-18T06:20:55.376Z,6.47
2023-01-18T06:23:22.476Z,8.43
2023-01-18T06:25:49.534Z,8.60
2023-01-18T06:28:16.584Z,8.33
2023-01-18T06:30:44.161Z,9.37
2023-01-18T06:33:11.175Z,10.30
2023-01-18T06:35:38.582Z,9.57
2023-01-18T06:38:08.774Z,8.70
2023-01-18T06:40:35.818Z,7.03
2023-01-18T06:43:03.216Z,6.83
2023-01-18T06:45:30.624Z,7.70
2023-01-18T06:47:57.725Z,4.63
2023-01-18T06:50:24.943Z,4.47
2023-01-18T06:52:52.285Z,3.63
2023-01-18T06:55:19.961Z,5.03
2023-01-18T06:57:48.036Z,9.50
2023-01-18T07:00:16.934Z,10.87
2023-01-18T07:02:44.105Z,9.87
2023-01-18T07:05:11.303Z,9.30
2023-01-18T07:07:38.684Z,8.80
2023-01-18T07:10:08.611Z,8.23
2023-01-18T07:12:36.153Z,6.40
2023-01-18T07:15:20.467Z,6.00
2023-01-18T07:17:50.660Z,6.97
2023-01-18T07:20:18.156Z,5.13
2023-01-18T07:22:45.411Z,6.70
2023-01-18T07:25:13.568Z,13.03
2023-01-18T07:27:43.789Z,17.33
2023-01-18T07:30:12.567Z,17.83
2023-01-18T07:32:44.935Z,17.43
2023-01-18T07:35:12.068Z,18.17
2023-01-18T07:37:39.173Z,15.53
2023-01-18T07:40:08.908Z,15.70
2023-01-18T07:42:35.981Z,15.87
2023-01-18T07:45:03.824Z,17.70
2023-01-18T07:47:31.029Z,15.23
2023-01-18T07:49:57.984Z,20.37
2023-01-18T07:52:25.405Z,16.33
2023-01-18T07:54:52.731Z,17.30
2023-01-18T07:57:19.888Z,17.57
2023-01-18T07:59:46.877Z,15.27
2023-01-18T08:02:14.645Z,15.83
2023-01-18T08:04:42.067Z,14.33
2023-01-18T08:07:09.372Z,13.70
2023-01-18T08:09:36.524Z,14.77
2023-01-18T08:12:03.691Z,15.87
2023-01-18T08:14:30.756Z,13.63
2023-01-18T08:16:57.699Z,12.17
2023-01-18T08:19:25.246Z,14.17
2023-01-18T08:21:52.212Z,14.37
2023-01-18T08:24:19.179Z,14.93
2023-01-18T08:26:46.137Z,15.93
2023-01-18T08:29:13.950Z,17.07
2023-01-18T08:31:41.031Z,15.53
2023-01-18T08:34:10.481Z,16.03
2023-01-18T08:36:37.572Z,13.83
2023-01-18T08:39:04.543Z,12.17
2023-01-18T08:41:31.453Z,13.40
2023-01-18T08:43:59.758Z,13.03
2023-01-18T08:46:27.247Z,15.53
2023-01-18T08:48:56.692Z,10.30
2023-01-18T08:51:26.202Z,9.60
2023-01-18T08:53:57.550Z,10.00
2023-01-18T08:56:25.567Z,9.07
2023-01-18T08:58:52.599Z,8.73
2023-01-18T09:01:19.995Z,6.70
2023-01-18T09:03:48.885Z,5.57
2023-01-18T09:06:17.021Z,6.03
2023-01-18T09:08:46.501Z,6.40
2023-01-18T09:11:16.539Z,10.27
2023-01-18T09:13:59.372Z,10.13
2023-01-18T09:16:28.590Z,10.10
2023-01-18T09:18:56.438Z,6.77
2023-01-18T09:21:23.723Z,8.63
2023-01-18T09:23:51.155Z,7.60
2023-01-18T09:26:20.759Z,7.43
2023-01-18T09:28:51.360Z,7.73
2023-01-18T09:31:24.133Z,9.10
2023-01-18T09:33:53.922Z,9.57
2023-01-18T09:36:26.426Z,9.77
2023-01-18T09:38:57.313Z,12.10
2023-01-18T09:42:01.444Z,9.67
2023-01-18T09:44:58.864Z,8.53
2023-01-18T09:47:34.560Z,8.87
2023-01-18T09:50:22.334Z,7.83
2023-01-18T09:53:04.473Z,7.57
2023-01-18T09:55:37.346Z,8.47
2023-01-18T09:58:41.781Z,11.93
2023-01-18T10:01:14.539Z,8.13
2023-01-18T10:03:59.576Z,7.77
2023-01-18T10:06:51.893Z,8.63
2023-01-18T10:09:23.919Z,8.67
2023-01-18T10:12:17.123Z,9.10
2023-01-18T10:15:10.629Z,9.17
2023-01-18T10:17:41.585Z,10.33
2023-01-18T10:20:38.717Z,9.77
2023-01-18T10:23:44.793Z,9.80
2023-01-18T10:26:29.200Z,10.70
2023-01-18T10:29:07.464Z,12.23
2023-01-18T10:32:01.890Z,7.27
2023-01-18T10:34:34.754Z,8.43
2023-01-18T10:37:23.204Z,6.20
2023-01-18T10:40:13.524Z,12.77
2023-01-18T10:42:43.531Z,10.03
2023-01-18T10:45:25.267Z,8.30
2023-01-18T10:47:54.658Z,7.80
2023-01-18T10:50:36.838Z,3.47
2023-01-18T10:53:29.561Z,5.03
2023-01-18T10:56:12.673Z,3.53
2023-01-18T10:58:50.739Z,3.70
2023-01-18T11:01:22.764Z,3.83
2023-01-18T11:04:06.251Z,4.73
2023-01-18T11:06:54.570Z,3.33
2023-01-18T11:09:44.450Z,4.37
2023-01-18T11:12:41.632Z,4.67
2023-01-18T11:15:14.791Z,3.97
2023-01-18T11:17:44.413Z,5.07
2023-01-18T11:20:30.909Z,5.00
2023-01-18T11:23:01.906Z,5.27
2023-01-18T11:25:41.687Z,4.83
2023-01-18T11:28:30.175Z,3.93
2023-01-18T11:31:06.658Z,4.77
2023-01-18T11:33:33.939Z,4.97
2023-01-18T11:36:03.631Z,4.63
2023-01-18T11:38:33.632Z,4.50
2023-01-18T11:41:15.482Z,2.77
2023-01-18T11:44:06.658Z,2.67
2023-01-18T11:46:55.051Z,3.23
2023-01-18T11:49:51.805Z,4.03
2023-01-18T11:52:34.409Z,2.30
2023-01-18T11:55:07.330Z,2.20
2023-01-18T11:57:35.470Z,2.47
2023-01-18T12:00:04.014Z,2.70
2023-01-18T12:02:56.546Z,2.17
2023-01-18T12:05:40.770Z,2.20
2023-01-18T12:08:38.471Z,3.07
2023-01-18T12:11:18.797Z,4.10
2023-01-18T12:14:00.140Z,2.93
2023-01-18T12:16:56.477Z,3.80
2023-01-18T12:19:29.501Z,2.67
2023-01-18T12:22:18.134Z,2.17
2023-01-18T12:24:54.032Z,2.60
2023-01-18T12:27:32.215Z,3.93
2023-01-18T12:30:24.175Z,2.97
2023-01-18T12:33:17.581Z,4.50
2023-01-18T12:35:56.405Z,3.13
2023-01-18T12:38:23.485Z,2.23
2023-01-18T12:41:09.044Z,2.53
2023-01-18T12:43:44.889Z,2.20
2023-01-18T12:46:26.210Z,2.47
2023-01-18T12:49:03.024Z,1.90
2023-01-18T12:51:37.775Z,1.67
2023-01-18T12:54:19.724Z,2.00
2023-01-18T12:56:50.786Z,1.67
2023-01-18T12:59:24.685Z,1.10
2023-01-18T13:02:04.173Z,1.70
2023-01-18T13:04:43.169Z,2.17
2023-01-18T13:07:15.641Z,2.10
2023-01-18T13:09:48.283Z,2.73
2023-01-18T13:12:16.313Z,1.57
2023-01-18T13:15:08.228Z,0.67
2023-01-18T13:18:11.831Z,0.80
2023-01-18T13:20:48.685Z,0.70
2023-01-18T13:23:37.786Z,1.47
2023-01-18T13:26:26.397Z,0.97
2023-01-18T13:29:17.442Z,0.87
2023-01-18T13:31:45.120Z,1.80
2023-01-18T13:34:29.065Z,1.03
2023-01-18T13:37:13.067Z,0.60
2023-01-18T13:39:47.281Z,0.57
2023-01-18T13:42:14.250Z,0.53
2023-01-18T13:44:47.649Z,0.30
2023-01-18T13:47:41.711Z,0.47
2023-01-18T13:50:38.276Z,1.23
2023-01-18T13:53:19.984Z,0.40
2023-01-18T13:56:00.472Z,0.60
2023-01-18T13:58:34.456Z,0.93
2023-01-18T14:01:06.623Z,2.60
2023-01-18T14:03:43.697Z,0.60
2023-01-18T14:06:21.090Z,0.80
2023-01-18T14:08:52.708Z,1.67
2023-01-18T14:11:34.692Z,6.33
2023-01-18T14:14:05.642Z,0.90
2023-01-18T14:16:36.449Z,1.33
2023-01-18T14:19:21.445Z,1.93
2023-01-18T14:21:57.444Z,0.97
2023-01-18T14:24:50.601Z,0.57
2023-01-18T14:27:22.528Z,3.37
2023-01-18T14:29:57.816Z,0.53
2023-01-18T14:32:30.555Z,1.17
2023-01-18T14:35:03.824Z,1.57
2023-01-18T14:37:34.404Z,0.90
2023-01-18T14:40:27.975Z,1.10
2023-01-18T14:43:05.828Z,0.67
2023-01-18T14:45:39.252Z,1.33
2023-01-18T14:48:20.283Z,0.90
2023-01-18T14:50:49.722Z,1.03
2023-01-18T14:53:44.087Z,0.90
2023-01-18T14:56:21.168Z,1.50
2023-01-18T14:58:59.656Z,0.93
2023-01-18T15:01:37.236Z,1.47
2023-01-18T15:04:07.463Z,1.43
2023-01-18T15:06:37.165Z,1.57
2023-01-18T15:09:07.360Z,2.53
2023-01-18T15:11:36.709Z,0.80
2023-01-18T15:14:21.437Z,2.97
2023-01-18T15:16:52.057Z,1.00
2023-01-18T15:19:22.372Z,1.03
2023-01-18T15:21:50.064Z,0.60
2023-01-18T15:24:20.760Z,3.30
2023-01-18T15:26:56.177Z,3.17
2023-01-18T15:29:36.885Z,1.13
2023-01-18T15:32:16.588Z,0.93
2023-01-18T15:34:47.246Z,0.60
2023-01-18T15:37:36.960Z,0.90
2023-01-18T15:40:07.090Z,0.77
2023-01-18T15:42:42.925Z,2.20
2023-01-18T15:45:20.464Z,1.17
2023-01-18T15:47:53.855Z,1.03
2023-01-18T15:50:37.215Z,2.30
2023-01-18T15:53:06.494Z,0.97
2023-01-18T15:55:35.145Z,1.33
2023-01-18T15:58:04.808Z,0.57
2023-01-18T16:00:38.481Z,1.30
2023-01-18T16:03:06.787Z,2.63
2023-01-18T16:05:33.846Z,2.80
2023-01-18T16:08:21.173Z,3.77
2023-01-18T16:10:57.091Z,5.40
2023-01-18T16:13:26.969Z,4.67
2023-01-18T16:16:20.224Z,7.27
2023-01-18T16:18:51.782Z,6.17
2023-01-18T16:21:29.698Z,6.53
2023-01-18T16:23:57.972Z,6.27
2023-01-18T16:26:30.606Z,7.30
2023-01-18T16:29:06.909Z,6.50
2023-01-18T16:31:35.906Z,6.90
2023-01-18T16:34:13.198Z,8.10
2023-01-18T16:36:42.401Z,8.67
2023-01-18T16:39:09.946Z,7.87
2023-01-18T16:41:37.693Z,7.27
2023-01-18T16:44:05.053Z,7.00
2023-01-18T16:46:33.725Z,7.33
2023-01-18T16:49:00.840Z,7.00
2023-01-18T16:51:28.808Z,11.90
2023-01-18T16:53:55.964Z,8.50
2023-01-18T16:56:22.903Z,6.70
2023-01-18T16:58:50.043Z,7.30
2023-01-18T17:01:17.078Z,6.73
2023-01-18T17:03:44.880Z,7.70
2023-01-18T17:06:23.565Z,5.23
2023-01-18T17:08:50.565Z,7.93
2023-01-18T17:11:17.890Z,7.17
2023-01-18T17:13:45.077Z,4.97
2023-01-18T17:16:18.314Z,4.87
2023-01-18T17:18:46.628Z,1.70
2023-01-18T17:21:13.687Z,4.60
2023-01-18T17:23:40.747Z,4.17
2023-01-18T17:26:11.503Z,3.60
2023-01-18T17:28:38.434Z,2.17
2023-01-18T17:31:05.705Z,2.00
2023-01-18T17:33:32.844Z,2.10
2023-01-18T17:35:59.909Z,3.23
2023-01-18T17:40:57.947Z,1.50
2023-01-18T17:43:34.271Z,2.80
2023-01-18T17:46:06.381Z,1.77
2023-01-18T17:48:33.820Z,1.33
2023-01-18T17:51:00.857Z,1.50
2023-01-18T17:53:27.861Z,1.27
2023-01-18T17:55:54.816Z,1.50
2023-01-18T17:58:24.394Z,1.10
2023-01-18T18:00:51.680Z,1.00
2023-01-18T18:03:18.956Z,0.80
2023-01-18T18:05:46.091Z,1.27
2023-01-18T18:08:13.126Z,1.47
2023-01-18T18:10:43.555Z,1.13
2023-01-18T18:13:10.530Z,1.60
2023-01-18T18:15:37.760Z,1.23
2023-01-18T18:18:07.439Z,1.10
2023-01-18T18:20:38.588Z,1.30
2023-01-18T18:23:05.586Z,1.40
2023-01-18T18:25:33.725Z,1.80
2023-01-18T18:28:00.762Z,1.40
2023-01-18T18:30:27.786Z,1.30
2023-01-18T18:32:55.048Z,2.37
2023-01-18T18:35:26.426Z,1.53
2023-01-18T18:37:54.580Z,1.50
2023-01-18T18:40:22.467Z,2.47
2023-01-18T18:43:01.353Z,1.63
2023-01-18T18:45:31.793Z,2.00
2023-01-18T18:47:59.059Z,2.30
2023-01-18T18:50:27.970Z,1.87
2023-01-18T18:52:55.070Z,1.70
2023-01-18T18:55:22.167Z,1.90
2023-01-18T18:57:49.287Z,1.87
2023-01-18T19:00:17.263Z,2.10
2023-01-18T19:02:44.317Z,1.60
2023-01-18T19:05:12.231Z,1.67
2023-01-18T19:07:39.436Z,2.03
2023-01-18T19:10:07.428Z,2.10
2023-01-18T19:12:34.545Z,1.73
2023-01-18T19:15:01.805Z,1.50
2023-01-18T19:17:31.644Z,1.90
2023-01-18T19:19:59.264Z,1.80
2023-01-18T19:22:29.600Z,1.90
2023-01-18T19:24:56.649Z,2.53
2023-01-18T19:27:24.702Z,2.23
2023-01-18T19:29:53.428Z,3.40
2023-01-18T19:32:21.005Z,2.07
2023-01-18T19:34:48.131Z,3.30
2023-01-18T19:37:15.370Z,2.17
2023-01-18T19:39:42.390Z,3.37
2023-01-18T19:42:09.419Z,4.47
2023-01-18T19:44:36.467Z,3.10
2023-01-18T19:47:03.610Z,2.90
2023-01-18T19:49:30.642Z,2.40
2023-01-18T19:51:57.687Z,3.00
2023-01-18T19:54:27.675Z,3.00
2023-01-18T19:56:54.610Z,3.77
2023-01-18T19:59:21.574Z,3.50
2023-01-18T20:01:48.556Z,6.33
2023-01-18T20:04:15.933Z,4.63
2023-01-18T20:06:46.187Z,3.37
2023-01-18T20:09:27.103Z,3.77
2023-01-18T20:12:01.689Z,3.33
2023-01-18T20:14:40.981Z,5.57
2023-01-18T20:17:14.487Z,3.60
2023-01-18T20:19:42.523Z,4.43
2023-01-18T20:22:09.996Z,4.43
2023-01-18T20:24:37.223Z,4.50
2023-01-18T20:27:15.404Z,5.43
2023-01-18T20:29:43.749Z,4.87
2023-01-18T20:32:17.275Z,4.17
2023-01-18T20:34:47.748Z,4.57
2023-01-18T20:37:16.022Z,4.50
2023-01-18T20:39:43.417Z,7.17
2023-01-18T20:42:10.671Z,7.50
2023-01-18T20:44:37.813Z,4.87
2023-01-18T20:47:05.422Z,6.63
2023-01-18T20:49:38.360Z,6.53
2023-01-18T20:52:07.409Z,4.53
2023-01-18T20:54:36.562Z,4.03
2023-01-18T20:57:05.180Z,5.27
2023-01-18T20:59:32.303Z,4.83
2023-01-18T21:01:59.533Z,4.70
2023-01-18T21:04:26.692Z,5.63
2023-01-18T21:06:54.503Z,4.80
2023-01-18T21:09:21.394Z,4.87
2023-01-18T21:11:48.300Z,5.77
2023-01-18T21:14:16.089Z,5.13
2023-01-18T21:16:43.776Z,6.17
2023-01-18T21:19:10.886Z,4.97
2023-01-18T21:21:37.890Z,4.63
2023-01-18T21:24:04.973Z,5.57
2023-01-18T21:26:32.112Z,4.47
2023-01-18T21:29:00.804Z,4.70
2023-01-18T21:31:28.178Z,5.97
2023-01-18T21:33:55.651Z,5.50
2023-01-18T21:36:23.330Z,6.50
2023-01-18T21:38:50.725Z,5.57
2023-01-18T21:41:36.525Z,3.43
2023-01-18T21:44:22.293Z,5.80
2023-01-18T21:46:53.975Z,5.10
2023-01-18T21:50:04.005Z,5.60
2023-01-18T21:52:47.757Z,7.20
2023-01-18T21:55:15.580Z,6.03
2023-01-18T21:57:43.205Z,5.63
2023-01-18T22:00:11.460Z,4.17
2023-01-18T22:02:38.950Z,5.17
2023-01-18T22:05:08.675Z,7.27
2023-01-18T22:07:36.199Z,11.20
2023-01-18T22:10:06.900Z,4.93
2023-01-18T22:12:36.180Z,3.87
2023-01-18T22:15:05.254Z,5.40
2023-01-18T22:17:32.703Z,3.77
2023-01-18T22:20:00.384Z,4.10
2023-01-18T22:22:32.433Z,5.23
2023-01-18T22:25:02.321Z,3.67
2023-01-18T22:27:29.528Z,5.23
2023-01-18T22:29:56.566Z,6.23
2023-01-18T22:32:23.575Z,5.20
2023-01-18T22:34:50.538Z,4.33
2023-01-18T22:37:17.609Z,4.57
2023-01-18T22:39:44.689Z,5.37
2023-01-18T22:42:11.607Z,4.73
2023-01-18T22:44:38.591Z,4.53
2023-01-18T22:47:05.648Z,4.57
2023-01-18T22:49:32.563Z,4.53
2023-01-18T22:51:59.601Z,4.27
2023-01-18T22:54:28.453Z,3.80
2023-01-18T22:56:55.421Z,4.90
2023-01-18T22:59:22.376Z,3.77
2023-01-18T23:01:49.445Z,6.30
2023-01-18T23:04:16.406Z,6.50
2023-01-18T23:06:46.846Z,5.50
2023-01-18T23:09:17.964Z,4.47
2023-01-18T23:11:45.766Z,5.47
2023-01-18T23:14:33.261Z,3.93
2023-01-18T23:17:18.626Z,3.53
2023-01-18T23:19:45.527Z,6.07
2023-01-18T23:22:12.527Z,4.97
2023-01-18T23:24:40.072Z,3.43
2023-01-18T23:27:12.560Z,4.03
2023-01-18T23:29:39.988Z,4.00
2023-01-18T23:32:07.816Z,4.60
2023-01-18T23:34:35.135Z,3.50
2023-01-18T23:37:02.486Z,3.63
2023-01-18T23:39:48.003Z,5.07
2023-01-18T23:42:34.303Z,3.13
2023-01-18T23:45:19.887Z,3.80
2023-01-18T23:48:05.398Z,3.37
2023-01-18T23:50:53.786Z,3.30
2023-01-18T23:53:39.448Z,5.30
2023-01-18T23:56:07.447Z,4.23
2023-01-18T23:58:39.364Z,4.63
